createdAt,value
2019-04-20T00:40:37.262Z,9.41
2019-04-20T00:46:49.685Z,9.23
2019-04-20T00:52:51.739Z,9.10
2019-04-20T01:04:56.549Z,8.81
2019-04-20T01:10:41.649Z,8.60
2019-04-20T01:16:45.215Z,8.39
2019-04-20T01:22:44.383Z,8.15
2019-04-20T01:28:49.004Z,8.06
2019-04-20T01:34:45.084Z,8.25
2019-04-20T01:40:36.185Z,8.24
2019-04-20T01:46:41.168Z,8.04
2019-04-20T01:52:50.760Z,8.27
2019-04-20T01:58:55.318Z,8.39
2019-04-20T02:04:40.440Z,8.10
2019-04-20T02:10:41.751Z,7.95
2019-04-20T02:16:40.774Z,7.66
2019-04-20T02:22:51.852Z,7.61
2019-04-20T02:29:03.275Z,7.68
2019-04-20T02:41:10.137Z,7.38
2019-04-20T02:46:57.488Z,7.36
2019-04-20T02:53:09.893Z,7.32
2019-04-20T02:59:14.810Z,7.24
2019-04-20T03:04:45.235Z,7.29
2019-04-20T03:11:05.828Z,7.20
2019-04-20T03:16:51.746Z,7.03
2019-04-20T03:28:54.199Z,6.99
2019-04-20T03:35:05.663Z,7.08
2019-04-20T03:40:49.606Z,7.17
2019-04-20T03:46:43.479Z,7.07
2019-04-20T03:52:58.291Z,6.97
2019-04-20T03:58:50.471Z,6.77
2019-04-20T04:04:54.730Z,6.66
2019-04-20T04:16:42.793Z,6.87
2019-04-20T04:22:51.413Z,6.83
2019-04-20T04:28:43.306Z,6.75
2019-04-20T04:34:52.964Z,6.57
2019-04-20T04:41:06.445Z,6.38
2019-04-20T04:46:43.503Z,6.28
2019-04-20T04:52:45.368Z,6.28
2019-04-20T04:58:36.311Z,6.44
2019-04-20T05:04:57.872Z,6.70
2019-04-20T05:10:37.017Z,6.88
2019-04-20T05:16:50.988Z,7.08
2019-04-20T05:22:51.059Z,7.24
2019-04-20T05:28:47.230Z,7.47
2019-04-20T05:34:58.165Z,7.65
2019-04-20T05:40:59.835Z,7.91
2019-04-20T05:46:53.558Z,8.14
2019-04-20T05:53:04.475Z,8.51
2019-04-20T05:58:58.078Z,8.93
2019-04-20T06:05:02.839Z,9.55
2019-04-20T06:10:55.074Z,10.14
2019-04-20T06:16:59.791Z,10.76
2019-04-20T06:22:56.308Z,11.59
2019-04-20T06:28:51.629Z,12.39
2019-04-20T06:34:53.580Z,13.67
2019-04-20T06:41:10.497Z,14.46
2019-04-20T06:47:02.858Z,14.90
2019-04-20T06:52:56.886Z,15.22
2019-04-20T06:58:54.449Z,15.31
2019-04-20T07:04:55.552Z,15.97
2019-04-20T07:11:02.241Z,16.06
2019-04-20T07:16:51.147Z,16.09
2019-04-20T07:22:54.335Z,16.46
2019-04-20T07:28:58.858Z,16.83
2019-04-20T07:34:56.775Z,17.70
2019-04-20T07:40:50.631Z,17.86
2019-04-20T07:47:01.552Z,17.76
2019-04-20T07:52:46.216Z,17.71
2019-04-20T08:03:42.793Z,18.03
2019-04-20T08:09:27.207Z,18.65
2019-04-20T08:15:46.150Z,18.62
2019-04-20T08:21:35.238Z,18.66
2019-04-20T08:27:16.278Z,18.70
2019-04-20T08:33:31.200Z,18.99
2019-04-20T08:39:48.180Z,19.64
2019-04-20T08:45:31.707Z,20.42
2019-04-20T08:51:33.166Z,19.93
2019-04-20T08:57:15.767Z,20.20
2019-04-20T09:03:20.165Z,21.02
2019-04-20T09:09:45.513Z,21.16
2019-04-20T09:15:14.864Z,21.62
2019-04-20T09:27:28.490Z,22.41
2019-04-20T09:33:33.633Z,21.74
2019-04-20T09:39:20.986Z,22.30
2019-04-20T09:45:25.836Z,22.29
2019-04-20T09:51:33.438Z,22.03
2019-04-20T09:57:29.501Z,22.40
2019-04-20T10:03:16.386Z,22.28
2019-04-20T10:09:15.774Z,22.70
2019-04-20T10:15:19.571Z,22.80
2019-04-20T10:21:15.811Z,22.64
2019-04-20T10:27:14.867Z,23.27
2019-04-20T10:33:15.502Z,23.39
2019-04-20T10:39:15.978Z,22.80
2019-04-20T10:45:15.020Z,23.22
2019-04-20T10:51:15.628Z,23.19
2019-04-20T10:57:15.560Z,23.90
2019-04-20T11:03:15.743Z,23.57
2019-04-20T11:09:16.383Z,24.10
2019-04-20T11:15:14.890Z,23.82
2019-04-20T11:21:15.374Z,23.57
2019-04-20T11:27:16.199Z,23.74
2019-04-20T11:33:16.105Z,23.58
2019-04-20T11:39:14.948Z,23.95
2019-04-20T11:45:15.030Z,24.42
2019-04-20T11:51:15.777Z,24.91
2019-04-20T11:57:15.406Z,25.08
2019-04-20T12:03:23.342Z,25.48
2019-04-20T12:09:14.996Z,25.00
2019-04-20T12:15:14.977Z,24.92
2019-04-20T12:21:15.043Z,24.97
2019-04-20T12:27:14.941Z,24.72
2019-04-20T12:33:15.565Z,24.94
2019-04-20T12:39:15.418Z,25.58
2019-04-20T12:45:15.672Z,25.26
2019-04-20T12:51:15.555Z,24.62
2019-04-20T12:57:16.451Z,24.56
2019-04-20T13:03:14.979Z,24.26
2019-04-20T13:09:14.989Z,24.04
2019-04-20T13:15:16.077Z,24.27
2019-04-20T13:21:14.992Z,24.72
2019-04-20T13:27:14.979Z,24.45
2019-04-20T13:33:15.128Z,24.61
2019-04-20T13:39:16.522Z,24.51
2019-04-20T13:45:15.053Z,24.57
2019-04-20T13:51:15.063Z,24.75
2019-04-20T13:57:15.605Z,24.62
2019-04-20T14:03:15.023Z,24.47
2019-04-20T14:09:15.144Z,24.55
2019-04-20T14:15:15.298Z,24.53
2019-04-20T14:21:16.259Z,24.64
2019-04-20T14:27:15.054Z,24.53
2019-04-20T14:33:15.059Z,24.57
2019-04-20T14:39:16.189Z,24.42
2019-04-20T14:45:16.357Z,24.64
2019-04-20T14:51:15.048Z,24.65
2019-04-20T14:57:15.112Z,24.57
2019-04-20T15:03:16.237Z,24.60
2019-04-20T15:09:15.303Z,24.72
2019-04-20T15:15:16.371Z,24.52
2019-04-20T15:21:15.460Z,24.70
2019-04-20T15:27:16.258Z,24.54
2019-04-20T15:33:15.117Z,24.50
2019-04-20T15:39:15.239Z,24.54
2019-04-20T15:45:15.701Z,24.39
2019-04-20T15:51:17.146Z,24.54
2019-04-20T15:57:21.262Z,24.37
2019-04-20T16:03:15.273Z,24.32
2019-04-20T16:09:15.688Z,24.17
2019-04-20T16:15:15.739Z,24.20
2019-04-20T16:21:20.903Z,24.26
2019-04-20T16:27:15.713Z,24.17
2019-04-20T16:33:16.432Z,24.08
2019-04-20T16:39:16.393Z,24.03
2019-04-20T16:45:15.245Z,23.99
2019-04-20T16:51:16.621Z,23.90
2019-04-20T16:57:17.038Z,23.76
2019-04-20T17:03:15.355Z,23.70
2019-04-20T17:09:15.750Z,23.59
2019-04-20T17:15:15.841Z,23.53
2019-04-20T17:21:21.749Z,23.37
2019-04-20T17:27:15.226Z,23.23
2019-04-20T17:33:15.987Z,23.03
2019-04-20T17:39:25.324Z,22.84
2019-04-20T17:45:35.404Z,22.62
2019-04-20T17:51:37.194Z,22.45
2019-04-20T17:57:15.497Z,22.29
2019-04-20T18:03:52.741Z,21.99
2019-04-20T18:09:40.205Z,21.66
2019-04-20T18:15:36.784Z,21.45
2019-04-20T18:21:15.311Z,21.24
2019-04-20T18:27:37.537Z,21.01
2019-04-20T18:33:17.937Z,20.71
2019-04-20T18:39:18.041Z,20.49
2019-04-20T18:45:30.982Z,20.15
2019-04-20T18:51:15.567Z,19.86
2019-04-20T18:57:19.649Z,19.55
2019-04-20T19:03:25.228Z,19.34
2019-04-20T19:09:21.609Z,19.00
2019-04-20T19:15:37.438Z,18.69
2019-04-20T19:21:15.425Z,18.42
2019-04-20T19:27:17.350Z,18.35
2019-04-20T19:33:31.102Z,18.19
2019-04-20T19:39:27.516Z,17.97
2019-04-20T19:45:34.604Z,17.65
2019-04-20T19:51:34.028Z,17.34
2019-04-20T19:57:34.770Z,17.16
2019-04-20T20:03:15.529Z,16.94
2019-04-20T20:09:17.796Z,16.69
2019-04-20T20:15:22.089Z,16.44
2019-04-20T20:21:23.845Z,16.23
2019-04-20T20:27:25.580Z,16.06
2019-04-20T20:33:34.885Z,15.96
2019-04-20T20:39:21.353Z,15.66
2019-04-20T20:45:26.239Z,15.44
2019-04-20T20:57:20.658Z,14.88
2019-04-20T21:03:22.257Z,14.64
2019-04-20T21:09:16.644Z,14.51
2019-04-20T21:15:20.413Z,14.16
2019-04-20T21:21:27.428Z,13.87
2019-04-20T21:27:18.396Z,13.42
2019-04-20T21:33:16.783Z,13.04
2019-04-20T21:39:26.054Z,12.76
2019-04-20T21:45:23.058Z,12.50
2019-04-20T21:51:30.498Z,12.32
2019-04-20T21:57:18.183Z,12.13
2019-04-20T22:03:16.914Z,11.95
2019-04-20T22:09:15.421Z,11.77
2019-04-20T22:15:20.774Z,11.58
2019-04-20T22:21:23.651Z,11.48
2019-04-20T22:27:21.140Z,11.34
2019-04-20T22:33:16.581Z,11.17
2019-04-20T22:39:15.760Z,11.19
2019-04-20T22:45:15.677Z,11.04
2019-04-20T22:51:34.040Z,10.86
2019-04-20T22:57:31.757Z,10.60
2019-04-20T23:03:16.706Z,10.59
2019-04-20T23:09:16.853Z,10.63
2019-04-20T23:15:16.338Z,10.41
2019-04-20T23:21:17.407Z,10.09
2019-04-20T23:27:21.947Z,10.13
2019-04-20T23:33:16.033Z,10.30
2019-04-20T23:39:16.900Z,10.20
2019-04-20T23:45:16.841Z,10.09
2019-04-20T23:51:36.218Z,9.89
2019-04-20T23:57:15.648Z,9.85
